createdAt,value
2018-08-25T00:00:37.991Z,15.80
2018-08-25T00:03:06.273Z,15.80
2018-08-25T00:05:34.463Z,15.80
2018-08-25T00:08:02.736Z,15.70
2018-08-25T00:10:30.941Z,15.70
2018-08-25T00:12:59.163Z,15.70
2018-08-25T00:15:27.410Z,15.70
2018-08-25T00:17:55.622Z,15.50
2018-08-25T00:20:23.799Z,15.60
2018-08-25T00:22:52.013Z,15.70
2018-08-25T00:25:20.205Z,15.70
2018-08-25T00:27:48.405Z,15.70
2018-08-25T00:30:22.117Z,15.70
2018-08-25T00:32:50.345Z,15.70
2018-08-25T00:35:18.538Z,15.80
2018-08-25T00:37:46.756Z,15.80
2018-08-25T00:40:15.436Z,15.80
2018-08-25T00:42:44.054Z,15.90
2018-08-25T00:45:12.319Z,15.90
2018-08-25T00:47:40.526Z,16.00
2018-08-25T00:50:08.769Z,15.90
2018-08-25T00:52:37.274Z,15.90
2018-08-25T00:55:05.829Z,15.90
2018-08-25T00:57:34.063Z,15.80
2018-08-25T01:00:02.290Z,15.80
2018-08-25T01:02:30.524Z,15.70
2018-08-25T01:04:58.728Z,15.70
2018-08-25T01:07:26.937Z,15.70
2018-08-25T01:09:55.306Z,15.70
2018-08-25T01:12:23.517Z,15.80
2018-08-25T01:14:51.756Z,15.70
2018-08-25T01:17:19.937Z,15.80
2018-08-25T01:19:48.174Z,15.80
2018-08-25T01:22:16.350Z,15.80
2018-08-25T01:24:44.950Z,15.80
2018-08-25T01:27:13.245Z,15.70
2018-08-25T01:29:41.493Z,15.70
2018-08-25T01:32:09.693Z,15.60
2018-08-25T01:34:37.901Z,15.60
2018-08-25T01:37:06.088Z,15.60
2018-08-25T01:39:34.354Z,15.60
2018-08-25T01:42:02.626Z,15.50
2018-08-25T01:44:30.912Z,15.40
2018-08-25T01:46:59.169Z,15.40
2018-08-25T01:49:27.453Z,15.40
2018-08-25T01:51:55.648Z,15.30
2018-08-25T01:54:23.856Z,15.20
2018-08-25T01:56:52.022Z,15.30
2018-08-25T01:59:20.580Z,15.40
2018-08-25T02:01:48.744Z,15.30
2018-08-25T02:04:16.961Z,15.10
2018-08-25T02:06:45.146Z,15.00
2018-08-25T02:09:13.792Z,15.00
2018-08-25T02:11:42.066Z,15.00
2018-08-25T02:14:10.981Z,15.00
2018-08-25T02:16:40.021Z,14.90
2018-08-25T02:19:08.204Z,14.90
2018-08-25T02:21:36.601Z,14.80
2018-08-25T02:24:04.909Z,14.80
2018-08-25T02:26:33.137Z,14.80
2018-08-25T02:29:01.304Z,14.80
2018-08-25T02:31:29.525Z,14.80
2018-08-25T02:33:57.722Z,14.90
2018-08-25T02:36:25.952Z,14.90
2018-08-25T02:38:54.213Z,15.00
2018-08-25T02:41:22.399Z,15.00
2018-08-25T02:43:50.621Z,15.10
2018-08-25T02:46:18.862Z,15.10
2018-08-25T02:48:47.019Z,15.10
2018-08-25T02:51:15.259Z,15.10
2018-08-25T02:53:43.408Z,15.20
2018-08-25T02:56:11.616Z,15.20
2018-08-25T02:58:39.788Z,15.20
2018-08-25T03:01:08.101Z,15.20
2018-08-25T03:03:36.324Z,15.30
2018-08-25T03:06:04.534Z,15.30
2018-08-25T03:08:32.725Z,15.30
2018-08-25T03:11:00.909Z,15.30
2018-08-25T03:13:29.072Z,15.30
2018-08-25T03:15:57.270Z,15.30
2018-08-25T03:18:25.471Z,15.20
2018-08-25T03:20:53.687Z,15.20
2018-08-25T03:23:21.878Z,15.10
2018-08-25T03:25:50.185Z,15.10
2018-08-25T03:28:18.370Z,15.20
2018-08-25T03:30:46.637Z,15.20
2018-08-25T03:33:14.835Z,15.20
2018-08-25T03:35:43.025Z,15.30
2018-08-25T03:38:11.222Z,15.30
2018-08-25T03:40:39.419Z,15.20
2018-08-25T03:43:07.629Z,15.10
2018-08-25T03:45:35.822Z,15.10
2018-08-25T03:48:04.133Z,15.20
2018-08-25T03:50:32.389Z,15.10
2018-08-25T03:53:00.619Z,15.10
2018-08-25T03:55:28.851Z,15.00
2018-08-25T03:57:57.044Z,15.10
2018-08-25T04:00:25.221Z,15.20
2018-08-25T04:02:53.434Z,15.20
2018-08-25T04:05:21.610Z,15.00
2018-08-25T04:07:49.815Z,15.00
2018-08-25T04:10:18.014Z,15.00
2018-08-25T04:12:46.214Z,14.90
2018-08-25T04:15:14.513Z,14.80
2018-08-25T04:17:42.724Z,14.80
2018-08-25T04:20:10.905Z,14.80
2018-08-25T04:22:39.096Z,14.80
2018-08-25T04:25:07.276Z,14.90
2018-08-25T04:27:35.482Z,14.90
2018-08-25T04:30:04.016Z,14.90
2018-08-25T04:32:32.217Z,14.80
2018-08-25T04:35:00.378Z,14.90
2018-08-25T04:37:28.656Z,14.90
2018-08-25T04:39:56.851Z,14.90
2018-08-25T04:42:25.049Z,14.90
2018-08-25T04:44:53.217Z,14.90
2018-08-25T04:47:21.481Z,15.00
2018-08-25T04:49:49.676Z,14.90
2018-08-25T04:52:17.997Z,14.80
2018-08-25T04:54:46.193Z,14.80
2018-08-25T04:57:14.529Z,14.80
2018-08-25T04:59:42.743Z,14.90
2018-08-25T05:02:10.892Z,14.90
2018-08-25T05:04:39.129Z,15.00
2018-08-25T05:07:07.300Z,15.00
2018-08-25T05:09:35.541Z,15.00
2018-08-25T05:12:03.749Z,14.90
2018-08-25T05:14:31.945Z,14.90
2018-08-25T05:17:00.117Z,14.90
2018-08-25T05:19:28.341Z,14.90
2018-08-25T05:21:56.560Z,14.90
2018-08-25T05:24:24.819Z,14.90
2018-08-25T05:26:54.072Z,15.00
2018-08-25T05:29:22.296Z,14.90
2018-08-25T05:31:50.465Z,14.90
2018-08-25T05:34:18.656Z,14.90
2018-08-25T05:36:46.844Z,14.80
2018-08-25T05:39:15.070Z,14.90
2018-08-25T05:41:43.245Z,14.90
2018-08-25T05:44:11.457Z,15.00
2018-08-25T05:46:39.633Z,15.00
2018-08-25T05:49:07.830Z,15.00
2018-08-25T05:51:36.021Z,15.10
2018-08-25T05:54:04.317Z,15.20
2018-08-25T05:56:32.597Z,15.20
2018-08-25T05:59:00.798Z,15.20
2018-08-25T06:01:28.965Z,15.20
2018-08-25T06:03:57.165Z,15.20
2018-08-25T06:06:25.400Z,15.30
2018-08-25T06:08:53.593Z,15.20
2018-08-25T06:11:21.800Z,15.30
2018-08-25T06:13:49.964Z,15.20
2018-08-25T06:16:18.169Z,15.20
2018-08-25T06:18:46.334Z,15.20
2018-08-25T06:21:14.554Z,15.30
2018-08-25T06:23:42.733Z,15.30
2018-08-25T06:26:10.948Z,15.30
2018-08-25T06:28:39.152Z,15.30
2018-08-25T06:31:07.354Z,15.40
2018-08-25T06:33:35.520Z,15.60
2018-08-25T06:36:03.752Z,15.60
2018-08-25T06:38:31.960Z,15.70
2018-08-25T06:41:00.174Z,15.70
2018-08-25T06:43:28.464Z,15.80
2018-08-25T06:46:02.111Z,15.90
2018-08-25T06:48:30.293Z,15.90
2018-08-25T06:50:58.569Z,16.00
2018-08-25T06:53:26.762Z,15.90
2018-08-25T06:55:55.003Z,16.00
2018-08-25T06:58:23.177Z,16.10
2018-08-25T07:00:51.549Z,16.00
2018-08-25T07:03:20.281Z,16.10
2018-08-25T07:05:48.518Z,16.10
2018-08-25T07:08:16.701Z,16.20
2018-08-25T07:10:45.046Z,16.40
2018-08-25T07:13:13.237Z,16.50
2018-08-25T07:15:41.457Z,16.60
2018-08-25T07:18:09.830Z,16.70
2018-08-25T07:20:38.021Z,16.90
2018-08-25T07:23:07.443Z,17.00
2018-08-25T07:25:35.887Z,17.20
2018-08-25T07:28:04.066Z,17.30
2018-08-25T07:30:32.316Z,17.20
2018-08-25T07:33:00.509Z,17.10
2018-08-25T07:35:29.178Z,17.00
2018-08-25T07:37:57.374Z,17.10
2018-08-25T07:40:25.921Z,16.90
2018-08-25T07:42:54.161Z,17.00
2018-08-25T07:45:22.444Z,17.10
2018-08-25T07:47:50.604Z,17.20
2018-08-25T07:50:18.815Z,17.00
2018-08-25T07:52:47.159Z,16.80
2018-08-25T07:55:15.468Z,16.90
2018-08-25T07:57:44.006Z,17.00
2018-08-25T08:00:12.221Z,17.20
2018-08-25T08:02:40.434Z,17.60
2018-08-25T08:05:08.622Z,17.70
2018-08-25T08:07:36.892Z,17.80
2018-08-25T08:10:05.328Z,17.80
2018-08-25T08:12:33.585Z,17.90
2018-08-25T08:15:02.248Z,18.00
2018-08-25T08:17:30.533Z,18.10
2018-08-25T08:19:58.676Z,18.20
2018-08-25T08:22:27.012Z,18.20
2018-08-25T08:24:55.180Z,18.20
2018-08-25T08:27:23.398Z,18.20
2018-08-25T08:29:51.571Z,18.20
2018-08-25T08:32:19.761Z,18.20
2018-08-25T08:34:47.949Z,18.30
2018-08-25T08:37:16.178Z,18.30
2018-08-25T08:39:44.380Z,18.30
2018-08-25T08:42:12.657Z,18.30
2018-08-25T08:44:40.822Z,18.50
2018-08-25T08:47:09.033Z,18.80
2018-08-25T08:49:46.456Z,18.70
2018-08-25T08:52:05.628Z,18.80
2018-08-25T08:54:33.820Z,18.80
2018-08-25T08:57:02.317Z,19.10
2018-08-25T08:59:30.494Z,19.10
2018-08-25T09:01:58.690Z,19.30
2018-08-25T09:04:27.048Z,19.40
2018-08-25T09:06:55.633Z,19.20
2018-08-25T09:09:23.879Z,19.20
2018-08-25T09:11:52.150Z,19.00
2018-08-25T09:14:20.345Z,19.20
2018-08-25T09:16:48.551Z,19.10
2018-08-25T09:19:16.784Z,19.30
2018-08-25T09:21:44.960Z,19.60
2018-08-25T09:24:13.165Z,19.50
2018-08-25T09:26:41.329Z,19.20
2018-08-25T09:29:09.556Z,19.10
2018-08-25T09:31:37.759Z,19.30
2018-08-25T09:34:06.055Z,19.20
2018-08-25T09:36:34.434Z,19.10
2018-08-25T09:39:02.860Z,19.00
2018-08-25T09:41:31.084Z,19.10
2018-08-25T09:43:59.341Z,19.40
2018-08-25T09:46:27.544Z,19.70
2018-08-25T09:48:55.890Z,19.60
2018-08-25T09:51:24.191Z,19.70
2018-08-25T09:53:52.519Z,20.00
2018-08-25T09:56:20.730Z,20.10
2018-08-25T09:58:48.956Z,20.10
2018-08-25T10:01:22.670Z,19.80
2018-08-25T10:03:50.885Z,19.80
2018-08-25T10:06:19.045Z,19.50
2018-08-25T10:08:47.236Z,19.50
2018-08-25T10:11:15.393Z,19.50
2018-08-25T10:13:43.661Z,19.30
2018-08-25T10:16:12.197Z,19.20
2018-08-25T10:18:40.417Z,19.20
2018-08-25T10:21:08.589Z,19.30
2018-08-25T10:23:36.853Z,19.30
2018-08-25T10:26:05.633Z,19.40
2018-08-25T10:28:33.921Z,19.40
2018-08-25T10:31:02.141Z,19.60
2018-08-25T10:33:30.300Z,19.60
2018-08-25T10:35:58.550Z,19.50
2018-08-25T10:38:27.417Z,19.50
2018-08-25T10:40:55.643Z,19.50
2018-08-25T10:43:23.799Z,19.30
2018-08-25T10:45:52.009Z,19.30
2018-08-25T10:48:20.161Z,19.30
2018-08-25T10:50:48.377Z,19.20
2018-08-25T10:53:16.535Z,19.20
2018-08-25T10:55:45.375Z,19.30
2018-08-25T10:58:13.722Z,19.20
2018-08-25T11:00:42.207Z,19.00
2018-08-25T11:03:10.333Z,18.70
2018-08-25T11:05:38.833Z,18.60
2018-08-25T11:08:07.123Z,18.50
2018-08-25T11:10:35.478Z,18.50
2018-08-25T11:13:03.648Z,18.50
2018-08-25T11:15:32.401Z,18.50
2018-08-25T11:18:00.584Z,18.60
2018-08-25T11:20:29.327Z,18.60
2018-08-25T11:22:57.576Z,18.60
2018-08-25T11:25:26.070Z,18.60
2018-08-25T11:27:54.314Z,18.60
2018-08-25T11:30:22.677Z,18.60
2018-08-25T11:32:50.946Z,18.60
2018-08-25T11:35:19.124Z,18.70
2018-08-25T11:37:47.338Z,18.70
2018-08-25T11:40:15.534Z,18.70
2018-08-25T11:42:43.719Z,18.70
2018-08-25T11:45:11.921Z,18.80
2018-08-25T11:47:40.085Z,18.80
2018-08-25T11:50:08.301Z,18.90
2018-08-25T11:52:36.493Z,18.90
2018-08-25T11:55:04.849Z,19.00
2018-08-25T11:57:33.037Z,19.00
2018-08-25T12:00:01.238Z,19.00
2018-08-25T12:02:29.445Z,19.10
2018-08-25T12:04:57.597Z,19.00
2018-08-25T12:07:25.797Z,18.80
2018-08-25T12:09:53.979Z,18.70
2018-08-25T12:12:22.182Z,18.40
2018-08-25T12:14:50.341Z,18.50
2018-08-25T12:17:18.541Z,18.60
2018-08-25T12:19:46.730Z,18.70
2018-08-25T12:22:14.928Z,18.90
2018-08-25T12:24:43.085Z,19.10
2018-08-25T12:27:11.306Z,19.10
2018-08-25T12:29:39.472Z,19.10
2018-08-25T12:32:07.693Z,18.80
2018-08-25T12:34:35.858Z,18.40
2018-08-25T12:37:04.096Z,18.00
2018-08-25T12:39:32.270Z,17.80
2018-08-25T12:42:00.497Z,17.50
2018-08-25T12:44:28.677Z,17.40
2018-08-25T12:46:56.880Z,17.20
2018-08-25T12:49:25.063Z,17.00
2018-08-25T12:51:53.278Z,16.80
2018-08-25T12:54:21.456Z,16.70
2018-08-25T12:56:49.666Z,16.50
2018-08-25T12:59:18.745Z,16.60
2018-08-25T13:01:47.459Z,16.80
2018-08-25T13:04:15.746Z,16.80
2018-08-25T13:06:43.985Z,16.90
2018-08-25T13:09:12.670Z,17.00
2018-08-25T13:11:40.884Z,17.10
2018-08-25T13:14:09.381Z,16.90
2018-08-25T13:16:37.580Z,16.70
2018-08-25T13:19:06.055Z,16.50
2018-08-25T13:21:34.225Z,16.40
2018-08-25T13:24:03.157Z,16.00
2018-08-25T13:26:31.334Z,15.80
2018-08-25T13:28:59.585Z,15.70
2018-08-25T13:31:27.786Z,15.60
2018-08-25T13:33:56.001Z,15.60
2018-08-25T13:36:24.193Z,15.70
2018-08-25T13:38:52.412Z,15.50
2018-08-25T13:41:20.611Z,15.50
2018-08-25T13:43:48.911Z,15.50
2018-08-25T13:46:17.100Z,15.60
2018-08-25T13:48:45.319Z,15.70
2018-08-25T13:51:13.510Z,15.70
2018-08-25T13:53:41.755Z,15.70
2018-08-25T13:56:10.074Z,15.70
2018-08-25T13:58:38.314Z,15.60
2018-08-25T14:01:06.506Z,15.40
2018-08-25T14:03:34.745Z,15.30
2018-08-25T14:06:02.912Z,15.10
2018-08-25T14:08:31.279Z,14.90
2018-08-25T14:10:59.386Z,14.70
2018-08-25T14:13:27.696Z,14.50
2018-08-25T14:15:55.872Z,14.30
2018-08-25T14:18:24.094Z,14.30
2018-08-25T14:20:52.325Z,14.40
2018-08-25T14:23:20.542Z,14.20
2018-08-25T14:25:48.738Z,14.30
2018-08-25T14:28:16.954Z,14.40
2018-08-25T14:30:45.173Z,14.50
2018-08-25T14:33:13.473Z,14.50
2018-08-25T14:35:41.706Z,14.50
2018-08-25T14:38:09.891Z,14.60
2018-08-25T14:40:38.111Z,14.60
2018-08-25T14:43:06.281Z,14.70
2018-08-25T14:45:34.489Z,14.80
2018-08-25T14:48:02.686Z,14.80
2018-08-25T14:50:30.897Z,14.90
2018-08-25T14:52:59.094Z,14.80
2018-08-25T14:55:27.350Z,14.80
2018-08-25T14:57:55.530Z,14.60
2018-08-25T15:00:23.864Z,14.60
2018-08-25T15:02:52.021Z,14.60
2018-08-25T15:05:20.225Z,14.70
2018-08-25T15:07:48.461Z,14.70
2018-08-25T15:10:16.673Z,14.70
2018-08-25T15:12:44.849Z,14.60
2018-08-25T15:15:13.055Z,14.50
2018-08-25T15:17:41.221Z,14.40
2018-08-25T15:20:09.433Z,14.40
2018-08-25T15:22:37.613Z,14.30
2018-08-25T15:25:05.941Z,14.40
2018-08-25T15:27:34.118Z,14.30
2018-08-25T15:30:02.406Z,14.30
2018-08-25T15:32:33.389Z,14.30
2018-08-25T15:35:01.670Z,14.30
2018-08-25T15:37:29.874Z,14.20
2018-08-25T15:39:58.109Z,14.20
2018-08-25T15:42:26.331Z,14.10
2018-08-25T15:44:54.689Z,14.20
2018-08-25T15:47:27.816Z,14.10
2018-08-25T15:49:56.309Z,14.10
2018-08-25T15:52:24.615Z,14.10
2018-08-25T15:54:53.146Z,14.20
2018-08-25T15:57:21.529Z,14.20
2018-08-25T15:59:50.657Z,14.30
2018-08-25T16:02:19.431Z,14.20
2018-08-25T16:04:48.007Z,14.20
2018-08-25T16:07:16.962Z,14.20
2018-08-25T16:09:45.954Z,14.30
2018-08-25T16:12:14.899Z,14.30
2018-08-25T16:14:43.567Z,14.30
2018-08-25T16:17:11.792Z,14.40
2018-08-25T16:19:40.046Z,14.40
2018-08-25T16:22:08.304Z,14.30
2018-08-25T16:24:36.473Z,14.30
2018-08-25T16:27:04.785Z,14.20
2018-08-25T16:29:32.951Z,14.10
2018-08-25T16:32:01.189Z,14.10
2018-08-25T16:34:29.656Z,14.10
2018-08-25T16:36:57.997Z,14.00
2018-08-25T16:39:26.156Z,14.00
2018-08-25T16:41:55.377Z,13.90
2018-08-25T16:44:23.564Z,13.80
2018-08-25T16:46:52.354Z,13.60
2018-08-25T16:49:20.588Z,13.60
2018-08-25T16:51:48.805Z,13.50
2018-08-25T16:54:16.981Z,13.50
2018-08-25T16:56:45.199Z,13.50
2018-08-25T16:59:13.426Z,13.50
2018-08-25T17:01:41.675Z,13.30
2018-08-25T17:04:09.839Z,13.40
2018-08-25T17:06:38.054Z,13.30
2018-08-25T17:09:08.049Z,13.40
2018-08-25T17:11:36.433Z,13.50
2018-08-25T17:14:04.798Z,13.40
2018-08-25T17:16:33.057Z,13.40
2018-08-25T17:19:01.250Z,13.50
2018-08-25T17:21:29.466Z,13.40
2018-08-25T17:23:57.657Z,13.30
2018-08-25T17:26:25.885Z,13.30
2018-08-25T17:28:54.140Z,13.30
2018-08-25T17:31:22.348Z,13.10
2018-08-25T17:33:50.609Z,13.10
2018-08-25T17:36:18.821Z,13.10
2018-08-25T17:38:47.136Z,13.00
2018-08-25T17:41:15.288Z,13.10
2018-08-25T17:43:43.525Z,13.20
2018-08-25T17:46:11.706Z,13.10
2018-08-25T17:48:39.910Z,13.20
2018-08-25T17:51:08.142Z,13.10
2018-08-25T17:53:36.356Z,13.10
2018-08-25T17:56:05.149Z,13.00
2018-08-25T17:58:33.375Z,13.00
2018-08-25T18:01:01.554Z,13.00
2018-08-25T18:03:29.768Z,13.00
2018-08-25T18:05:58.070Z,13.00
2018-08-25T18:08:26.376Z,13.10
2018-08-25T18:10:54.719Z,13.10
2018-08-25T18:13:22.931Z,13.10
2018-08-25T18:15:52.096Z,13.00
2018-08-25T18:18:20.354Z,13.00
2018-08-25T18:20:48.818Z,13.00
2018-08-25T18:23:21.303Z,13.00
2018-08-25T18:25:51.269Z,12.90
2018-08-25T18:28:19.486Z,12.90
2018-08-25T18:30:47.685Z,12.80
2018-08-25T18:33:15.926Z,12.90
2018-08-25T18:35:44.122Z,12.80
2018-08-25T18:38:12.370Z,12.80
2018-08-25T18:40:40.557Z,12.80
2018-08-25T18:43:08.786Z,12.80
2018-08-25T18:45:37.893Z,12.80
2018-08-25T18:48:06.162Z,12.90
2018-08-25T18:50:34.381Z,12.90
2018-08-25T18:53:02.677Z,13.00
2018-08-25T18:55:31.303Z,13.00
2018-08-25T18:57:59.508Z,13.00
2018-08-25T19:00:27.725Z,13.00
2018-08-25T19:02:55.917Z,13.00
2018-08-25T19:05:24.161Z,12.90
2018-08-25T19:07:52.350Z,12.90
2018-08-25T19:10:20.610Z,12.70
2018-08-25T19:12:48.801Z,12.70
2018-08-25T19:15:17.101Z,12.60
2018-08-25T19:17:46.421Z,12.60
2018-08-25T19:20:15.641Z,12.60
2018-08-25T19:22:43.872Z,12.50
2018-08-25T19:25:13.577Z,12.60
2018-08-25T19:27:41.769Z,12.70
2018-08-25T19:30:10.126Z,12.80
2018-08-25T19:32:38.385Z,12.80
2018-08-25T19:35:06.616Z,12.90
2018-08-25T19:37:34.781Z,12.90
2018-08-25T19:40:03.637Z,12.90
2018-08-25T19:42:31.881Z,12.90
2018-08-25T19:45:00.109Z,12.90
2018-08-25T19:47:28.293Z,12.90
2018-08-25T19:49:56.945Z,12.80
2018-08-25T19:52:25.513Z,12.80
2018-08-25T19:54:54.491Z,12.80
2018-08-25T19:57:22.860Z,12.70
2018-08-25T19:59:51.194Z,12.60
2018-08-25T20:02:19.613Z,12.50
2018-08-25T20:04:47.832Z,12.50
2018-08-25T20:07:15.998Z,12.50
2018-08-25T20:09:44.280Z,12.50
2018-08-25T20:12:12.515Z,12.40
2018-08-25T20:14:40.753Z,12.40
2018-08-25T20:17:09.006Z,12.50
2018-08-25T20:19:37.313Z,12.50
2018-08-25T20:22:07.614Z,12.50
2018-08-25T20:24:36.905Z,12.40
2018-08-25T20:27:05.426Z,12.40
2018-08-25T20:29:33.615Z,12.40
2018-08-25T20:32:01.905Z,12.40
2018-08-25T20:34:30.099Z,12.40
2018-08-25T20:36:58.445Z,12.40
2018-08-25T20:39:26.621Z,12.40
2018-08-25T20:41:54.930Z,12.30
2018-08-25T20:44:23.134Z,12.30
2018-08-25T20:46:51.378Z,12.30
2018-08-25T20:49:19.594Z,12.30
2018-08-25T20:51:47.837Z,12.30
2018-08-25T20:54:16.033Z,12.30
2018-08-25T20:56:44.270Z,12.30
2018-08-25T20:59:12.449Z,12.30
2018-08-25T21:01:40.688Z,12.30
2018-08-25T21:04:08.881Z,12.30
2018-08-25T21:06:37.143Z,12.30
2018-08-25T21:09:08.010Z,12.40
2018-08-25T21:11:36.252Z,12.40
2018-08-25T21:14:04.788Z,12.40
2018-08-25T21:16:33.014Z,12.40
2018-08-25T21:19:01.185Z,12.30
2018-08-25T21:21:29.504Z,12.20
2018-08-25T21:23:57.832Z,12.20
2018-08-25T21:26:26.090Z,12.20
2018-08-25T21:28:54.273Z,12.20
2018-08-25T21:31:22.489Z,12.30
2018-08-25T21:33:50.656Z,12.30
2018-08-25T21:36:18.880Z,12.30
2018-08-25T21:38:47.109Z,12.30
2018-08-25T21:41:15.288Z,12.30
2018-08-25T21:43:43.517Z,12.40
2018-08-25T21:46:11.712Z,12.20
2018-08-25T21:48:39.929Z,12.10
2018-08-25T21:51:08.128Z,12.00
2018-08-25T21:53:36.337Z,11.90
2018-08-25T21:56:04.621Z,11.80
2018-08-25T21:58:32.953Z,11.80
2018-08-25T22:01:01.179Z,11.80
2018-08-25T22:03:29.414Z,11.80
2018-08-25T22:05:57.653Z,11.80
2018-08-25T22:08:25.868Z,11.70
2018-08-25T22:10:54.365Z,11.70
2018-08-25T22:13:22.698Z,11.70
2018-08-25T22:15:50.889Z,11.60
2018-08-25T22:18:19.917Z,11.60
2018-08-25T22:20:48.093Z,11.60
2018-08-25T22:23:16.300Z,11.70
2018-08-25T22:25:44.524Z,11.70
2018-08-25T22:28:12.773Z,11.80
2018-08-25T22:30:40.953Z,11.80
2018-08-25T22:33:09.182Z,11.90
2018-08-25T22:35:37.348Z,12.00
2018-08-25T22:38:05.605Z,11.90
2018-08-25T22:40:33.790Z,12.00
2018-08-25T22:43:02.001Z,12.00
2018-08-25T22:45:30.168Z,12.00
2018-08-25T22:47:58.394Z,11.90
2018-08-25T22:50:26.699Z,11.90
2018-08-25T22:52:54.905Z,11.90
2018-08-25T22:55:23.453Z,12.00
2018-08-25T22:57:51.674Z,12.10
2018-08-25T23:00:20.621Z,12.10
2018-08-25T23:02:48.801Z,12.00
2018-08-25T23:05:17.052Z,12.00
2018-08-25T23:07:45.245Z,11.90
2018-08-25T23:10:13.450Z,12.00
2018-08-25T23:12:41.637Z,12.00
2018-08-25T23:15:09.872Z,12.00
2018-08-25T23:17:38.046Z,12.10
2018-08-25T23:20:06.282Z,12.00
2018-08-25T23:22:34.456Z,12.00
2018-08-25T23:25:02.745Z,12.00
2018-08-25T23:27:30.937Z,11.90
2018-08-25T23:29:59.137Z,12.00
2018-08-25T23:32:27.329Z,12.00
2018-08-25T23:34:55.552Z,12.00
2018-08-25T23:37:23.739Z,12.00
2018-08-25T23:39:51.970Z,11.80
2018-08-25T23:42:20.250Z,11.90
2018-08-25T23:44:48.460Z,11.90
2018-08-25T23:47:16.648Z,11.90
2018-08-25T23:49:44.890Z,11.90
2018-08-25T23:52:13.072Z,11.80
2018-08-25T23:54:41.308Z,11.90
2018-08-25T23:57:09.496Z,11.90
2018-08-25T23:59:37.717Z,11.80
